sensor_id;sensor_type;location;lat;lon;timestamp;pressure;altitude;pressure_sealevel;temperature;humidity
10806;BME280;5455;53.224;6.000;2023-03-23T00:01:48;100037.06;;;10.54;100.00
10806;BME280;5455;53.224;6.000;2023-03-23T00:04:17;100027.56;;;10.51;100.00
10806;BME280;5455;53.224;6.000;2023-03-23T00:06:43;100021.69;;;10.53;100.00
10806;BME280;5455;53.224;6.000;2023-03-23T00:09:14;100015.78;;;10.55;100.00
10806;BME280;5455;53.224;6.000;2023-03-23T00:11:42;100018.09;;;10.49;100.00
10806;BME280;5455;53.224;6.000;2023-03-23T00:14:09;100008.69;;;10.54;100.00
10806;BME280;5455;53.224;6.000;2023-03-23T00:16:40;100000.03;;;10.55;100.00
10806;BME280;5455;53.224;6.000;2023-03-23T00:19:09;100004.38;;;10.56;100.00
10806;BME280;5455;53.224;6.000;2023-03-23T00:21:39;99999.22;;;10.55;100.00
10806;BME280;5455;53.224;6.000;2023-03-23T00:24:12;100006.69;;;10.50;100.00
10806;BME280;5455;53.224;6.000;2023-03-23T00:26:43;100006.31;;;10.52;100.00
10806;BME280;5455;53.224;6.000;2023-03-23T00:29:20;99994.56;;;10.59;100.00
10806;BME280;5455;53.224;6.000;2023-03-23T00:31:49;99995.72;;;10.58;100.00
10806;BME280;5455;53.224;6.000;2023-03-23T00:34:19;99993.75;;;10.58;100.00
10806;BME280;5455;53.224;6.000;2023-03-23T00:36:47;99998.19;;;10.66;100.00
10806;BME280;5455;53.224;6.000;2023-03-23T00:39:14;99994.19;;;10.64;100.00
10806;BME280;5455;53.224;6.000;2023-03-23T00:41:45;99995.03;;;10.68;100.00
10806;BME280;5455;53.224;6.000;2023-03-23T00:44:12;99991.06;;;10.65;100.00
10806;BME280;5455;53.224;6.000;2023-03-23T00:46:44;99981.25;;;10.68;100.00
10806;BME280;5455;53.224;6.000;2023-03-23T00:49:16;99981.56;;;10.59;100.00
10806;BME280;5455;53.224;6.000;2023-03-23T00:51:46;99982.72;;;10.58;100.00
10806;BME280;5455;53.224;6.000;2023-03-23T00:54:12;99977.63;;;10.57;100.00
10806;BME280;5455;53.224;6.000;2023-03-23T00:56:38;99962.19;;;10.52;100.00
10806;BME280;5455;53.224;6.000;2023-03-23T00:59:07;99958.25;;;10.49;100.00
10806;BME280;5455;53.224;6.000;2023-03-23T01:01:34;99957.78;;;10.40;100.00
10806;BME280;5455;53.224;6.000;2023-03-23T01:04:02;99941.59;;;10.35;100.00
10806;BME280;5455;53.224;6.000;2023-03-23T01:06:31;99923.06;;;10.32;100.00
10806;BME280;5455;53.224;6.000;2023-03-23T01:08:58;99935.25;;;10.31;100.00
10806;BME280;5455;53.224;6.000;2023-03-23T01:11:24;99930.97;;;10.37;100.00
10806;BME280;5455;53.224;6.000;2023-03-23T01:13:51;99940.47;;;10.43;100.00
10806;BME280;5455;53.224;6.000;2023-03-23T01:16:21;99940.91;;;10.49;100.00
10806;BME280;5455;53.224;6.000;2023-03-23T01:18:47;99925.97;;;10.50;100.00
10806;BME280;5455;53.224;6.000;2023-03-23T01:21:14;99922.50;;;10.57;100.00
10806;BME280;5455;53.224;6.000;2023-03-23T01:23:42;99918.19;;;10.59;100.00
10806;BME280;5455;53.224;6.000;2023-03-23T01:26:17;99912.72;;;10.70;100.00
10806;BME280;5455;53.224;6.000;2023-03-23T01:28:44;99907.31;;;10.80;100.00
10806;BME280;5455;53.224;6.000;2023-03-23T01:31:12;99912.41;;;10.82;100.00
10806;BME280;5455;53.224;6.000;2023-03-23T01:33:40;99919.16;;;10.88;100.00
10806;BME280;5455;53.224;6.000;2023-03-23T01:36:15;99916.84;;;10.90;100.00
10806;BME280;5455;53.224;6.000;2023-03-23T01:38:44;99907.72;;;10.86;100.00
10806;BME280;5455;53.224;6.000;2023-03-23T01:41:11;99901.00;;;10.80;100.00
10806;BME280;5455;53.224;6.000;2023-03-23T01:44:04;99901.78;;;10.80;100.00
10806;BME280;5455;53.224;6.000;2023-03-23T01:46:44;99893.91;;;10.82;100.00
10806;BME280;5455;53.224;6.000;2023-03-23T01:49:13;99899.44;;;10.82;100.00
10806;BME280;5455;53.224;6.000;2023-03-23T01:51:46;99896.31;;;10.84;100.00
10806;BME280;5455;53.224;6.000;2023-03-23T01:54:14;99896.69;;;10.82;100.00
10806;BME280;5455;53.224;6.000;2023-03-23T01:57:03;99890.81;;;10.87;100.00
10806;BME280;5455;53.224;6.000;2023-03-23T01:59:31;99880.59;;;10.91;100.00
10806;BME280;5455;53.224;6.000;2023-03-23T02:02:24;99879.81;;;10.94;100.00
10806;BME280;5455;53.224;6.000;2023-03-23T02:04:57;99870.41;;;10.99;100.00
10806;BME280;5455;53.224;6.000;2023-03-23T02:07:26;99874.75;;;11.03;100.00
10806;BME280;5455;53.224;6.000;2023-03-23T02:09:56;99880.66;;;11.05;100.00
10806;BME280;5455;53.224;6.000;2023-03-23T02:12:22;99871.63;;;11.12;100.00
10806;BME280;5455;53.224;6.000;2023-03-23T02:14:50;99868.09;;;11.15;100.00
10806;BME280;5455;53.224;6.000;2023-03-23T02:17:31;99865.75;;;11.17;100.00
10806;BME280;5455;53.224;6.000;2023-03-23T02:33:32;99863.84;;;11.28;100.00
10806;BME280;5455;53.224;6.000;2023-03-23T02:36:20;99845.28;;;11.25;100.00
10806;BME280;5455;53.224;6.000;2023-03-23T02:41:36;99848.03;;;11.22;100.00
10806;BME280;5455;53.224;6.000;2023-03-23T02:44:04;99838.97;;;11.21;100.00
10806;BME280;5455;53.224;6.000;2023-03-23T02:46:32;99838.97;;;11.21;100.00
10806;BME280;5455;53.224;6.000;2023-03-23T02:48:59;99847.66;;;11.20;100.00
10806;BME280;5455;53.224;6.000;2023-03-23T02:51:27;99844.09;;;11.23;100.00
10806;BME280;5455;53.224;6.000;2023-03-23T02:53:55;99840.16;;;11.24;100.00
10806;BME280;5455;53.224;6.000;2023-03-23T02:56:23;99829.53;;;11.22;100.00
10806;BME280;5455;53.224;6.000;2023-03-23T02:58:50;99828.72;;;11.22;100.00
10806;BME280;5455;53.224;6.000;2023-03-23T03:03:52;99826.38;;;11.20;100.00
10806;BME280;5455;53.224;6.000;2023-03-23T03:06:31;99834.22;;;11.18;100.00
10806;BME280;5455;53.224;6.000;2023-03-23T03:09:07;99825.56;;;11.20;100.00
10806;BME280;5455;53.224;6.000;2023-03-23T03:11:46;99823.22;;;11.22;100.00
10806;BME280;5455;53.224;6.000;2023-03-23T03:14:25;99821.25;;;11.22;100.00
10806;BME280;5455;53.224;6.000;2023-03-23T03:17:01;99824.00;;;11.22;100.00
10806;BME280;5455;53.224;6.000;2023-03-23T03:19:38;99819.28;;;11.23;100.00
10806;BME280;5455;53.224;6.000;2023-03-23T03:22:06;99820.84;;;11.20;100.00
10806;BME280;5455;53.224;6.000;2023-03-23T03:24:40;99831.44;;;11.15;100.00
10806;BME280;5455;53.224;6.000;2023-03-23T03:27:16;99825.06;;;10.93;100.00
10806;BME280;5455;53.224;6.000;2023-03-23T03:29:49;99838.81;;;10.89;100.00
10806;BME280;5455;53.224;6.000;2023-03-23T03:32:22;99829.72;;;10.78;100.00
10806;BME280;5455;53.224;6.000;2023-03-23T03:34:50;99840.28;;;10.73;100.00
10806;BME280;5455;53.224;6.000;2023-03-23T03:37:18;99830.03;;;10.70;100.00
10806;BME280;5455;53.224;6.000;2023-03-23T03:39:48;99829.25;;;10.69;100.00
10806;BME280;5455;53.224;6.000;2023-03-23T03:42:15;99833.97;;;10.69;100.00
10806;BME280;5455;53.224;6.000;2023-03-23T03:44:41;99837.50;;;10.66;100.00
10806;BME280;5455;53.224;6.000;2023-03-23T03:47:07;99852.03;;;10.59;100.00
10806;BME280;5455;53.224;6.000;2023-03-23T03:49:33;99820.47;;;10.53;100.00
10806;BME280;5455;53.224;6.000;2023-03-23T03:51:59;99827.53;;;10.47;100.00
10806;BME280;5455;53.224;6.000;2023-03-23T03:54:34;99827.47;;;10.40;100.00
10806;BME280;5455;53.224;6.000;2023-03-23T03:57:02;99822.38;;;10.42;100.00
10806;BME280;5455;53.224;6.000;2023-03-23T03:59:51;99827.09;;;10.41;100.00
10806;BME280;5455;53.224;6.000;2023-03-23T04:02:36;99822.34;;;10.38;100.00
10806;BME280;5455;53.224;6.000;2023-03-23T04:05:02;99829.41;;;10.39;100.00
10806;BME280;5455;53.224;6.000;2023-03-23T04:07:31;99824.72;;;10.40;100.00
10806;BME280;5455;53.224;6.000;2023-03-23T04:09:57;99821.19;;;10.43;100.00
10806;BME280;5455;53.224;6.000;2023-03-23T04:12:23;99826.69;;;10.43;100.00
10806;BME280;5455;53.224;6.000;2023-03-23T04:15:10;99822.78;;;10.44;100.00
10806;BME280;5455;53.224;6.000;2023-03-23T04:17:36;99814.47;;;10.40;100.00
10806;BME280;5455;53.224;6.000;2023-03-23T04:20:04;99819.22;;;10.43;100.00
10806;BME280;5455;53.224;6.000;2023-03-23T04:22:39;99832.63;;;10.45;100.00
10806;BME280;5455;53.224;6.000;2023-03-23T04:25:11;99829.88;;;10.45;100.00
10806;BME280;5455;53.224;6.000;2023-03-23T04:27:39;99828.28;;;10.44;100.00
10806;BME280;5455;53.224;6.000;2023-03-23T04:30:12;99828.22;;;10.37;100.00
10806;BME280;5455;53.224;6.000;2023-03-23T04:32:39;99825.88;;;10.35;100.00
10806;BME280;5455;53.224;6.000;2023-03-23T04:35:09;99832.50;;;10.31;100.00
10806;BME280;5455;53.224;6.000;2023-03-23T04:37:41;99823.44;;;10.27;100.00
10806;BME280;5455;53.224;6.000;2023-03-23T04:40:11;99836.78;;;10.25;100.00
10806;BME280;5455;53.224;6.000;2023-03-23T04:42:44;99841.94;;;10.26;100.00
10806;BME280;5455;53.224;6.000;2023-03-23T04:45:37;99840.78;;;10.31;100.00
10806;BME280;5455;53.224;6.000;2023-03-23T04:48:05;99841.59;;;10.35;100.00
10806;BME280;5455;53.224;6.000;2023-03-23T04:50:40;99846.28;;;10.31;100.00
10806;BME280;5455;53.224;6.000;2023-03-23T04:53:16;99847.91;;;10.35;100.00
10806;BME280;5455;53.224;6.000;2023-03-23T04:55:45;99847.88;;;10.32;100.00
10806;BME280;5455;53.224;6.000;2023-03-23T04:58:14;99843.09;;;10.25;100.00
10806;BME280;5455;53.224;6.000;2023-03-23T05:01:04;99845.81;;;10.18;100.00
10806;BME280;5455;53.224;6.000;2023-03-23T05:03:36;99845.00;;;10.18;100.00
10806;BME280;5455;53.224;6.000;2023-03-23T05:06:03;99857.59;;;10.19;100.00
10806;BME280;5455;53.224;6.000;2023-03-23T05:08:29;99857.97;;;10.14;100.00
10806;BME280;5455;53.224;6.000;2023-03-23T05:11:00;99856.84;;;10.18;100.00
10806;BME280;5455;53.224;6.000;2023-03-23T05:13:33;99850.94;;;10.20;100.00
10806;BME280;5455;53.224;6.000;2023-03-23T05:16:03;99871.41;;;10.22;100.00
10806;BME280;5455;53.224;6.000;2023-03-23T05:18:31;99876.16;;;10.25;100.00
10806;BME280;5455;53.224;6.000;2023-03-23T05:21:03;99876.59;;;10.27;100.00
10806;BME280;5455;53.224;6.000;2023-03-23T05:23:34;99879.31;;;10.24;100.00
10806;BME280;5455;53.224;6.000;2023-03-23T05:26:10;99877.97;;;10.11;100.00
10806;BME280;5455;53.224;6.000;2023-03-23T05:28:37;99875.13;;;10.04;100.00
10806;BME280;5455;53.224;6.000;2023-03-23T05:31:32;99879.00;;;9.95;100.00
10806;BME280;5455;53.224;6.000;2023-03-23T05:33:58;99871.88;;;9.91;100.00
10806;BME280;5455;53.224;6.000;2023-03-23T05:36:33;99893.91;;;9.91;100.00
10806;BME280;5455;53.224;6.000;2023-03-23T05:39:20;99892.31;;;9.90;100.00
10806;BME280;5455;53.224;6.000;2023-03-23T05:41:58;99897.13;;;9.96;100.00
10806;BME280;5455;53.224;6.000;2023-03-23T05:44:31;99897.91;;;10.01;100.00
10806;BME280;5455;53.224;6.000;2023-03-23T05:46:59;99888.09;;;10.00;100.00
10806;BME280;5455;53.224;6.000;2023-03-23T05:49:25;99891.66;;;10.00;100.00
10806;BME280;5455;53.224;6.000;2023-03-23T05:51:53;99900.72;;;10.04;100.00
10806;BME280;5455;53.224;6.000;2023-03-23T05:54:19;99896.03;;;10.08;100.00
10806;BME280;5455;53.224;6.000;2023-03-23T05:56:48;99911.00;;;10.11;100.00
10806;BME280;5455;53.224;6.000;2023-03-23T05:59:26;99907.84;;;10.09;100.00
10806;BME280;5455;53.224;6.000;2023-03-23T06:01:55;99929.34;;;9.96;100.00
10806;BME280;5455;53.224;6.000;2023-03-23T06:04:23;99907.91;;;9.75;100.00
10806;BME280;5455;53.224;6.000;2023-03-23T06:07:11;99892.75;;;9.59;100.00
10806;BME280;5455;53.224;6.000;2023-03-23T06:09:43;99893.94;;;9.58;100.00
10806;BME280;5455;53.224;6.000;2023-03-23T06:12:17;99900.56;;;9.53;100.00
10806;BME280;5455;53.224;6.000;2023-03-23T06:15:03;99907.69;;;9.58;100.00
10806;BME280;5455;53.224;6.000;2023-03-23T06:17:50;99911.50;;;9.50;100.00
10806;BME280;5455;53.224;6.000;2023-03-23T06:20:24;99933.53;;;9.50;100.00
10806;BME280;5455;53.224;6.000;2023-03-23T06:22:52;99925.72;;;9.52;100.00
10806;BME280;5455;53.224;6.000;2023-03-23T06:25:30;99941.41;;;9.51;100.00
10806;BME280;5455;53.224;6.000;2023-03-23T06:28:00;99948.31;;;9.38;100.00
10806;BME280;5455;53.224;6.000;2023-03-23T06:30:26;99944.75;;;9.34;100.00
10806;BME280;5455;53.224;6.000;2023-03-23T06:32:58;99952.13;;;9.30;100.00
10806;BME280;5455;53.224;6.000;2023-03-23T06:35:56;99957.22;;;9.28;100.00
10806;BME280;5455;53.224;6.000;2023-03-23T06:38:52;99957.81;;;9.44;100.00
10806;BME280;5455;53.224;6.000;2023-03-23T06:41:26;99965.09;;;9.59;100.00
10806;BME280;5455;53.224;6.000;2023-03-23T06:43:52;99973.91;;;9.72;100.00
10806;BME280;5455;53.224;6.000;2023-03-23T06:46:26;99977.06;;;9.74;100.00
10806;BME280;5455;53.224;6.000;2023-03-23T06:48:56;99980.56;;;9.67;100.00
10806;BME280;5455;53.224;6.000;2023-03-23T06:51:33;99985.63;;;9.65;100.00
10806;BME280;5455;53.224;6.000;2023-03-23T06:54:00;99990.25;;;9.58;100.00
10806;BME280;5455;53.224;6.000;2023-03-23T06:56:30;99991.06;;;9.58;100.00
10806;BME280;5455;53.224;6.000;2023-03-23T06:58:56;99999.31;;;9.58;100.00
10806;BME280;5455;53.224;6.000;2023-03-23T07:01:24;99999.78;;;9.64;100.00
10806;BME280;5455;53.224;6.000;2023-03-23T07:03:57;100006.38;;;9.89;100.00
10806;BME280;5455;53.224;6.000;2023-03-23T07:06:35;99997.53;;;10.06;100.00
10806;BME280;5455;53.224;6.000;2023-03-23T07:09:01;100007.56;;;10.21;100.00
10806;BME280;5455;53.224;6.000;2023-03-23T07:11:32;100001.38;;;10.31;100.00
10806;BME280;5455;53.224;6.000;2023-03-23T07:14:01;100010.53;;;10.42;100.00
10806;BME280;5455;53.224;6.000;2023-03-23T07:16:28;100007.84;;;10.49;100.00
10806;BME280;5455;53.224;6.000;2023-03-23T07:18:54;100022.06;;;10.55;100.00
10806;BME280;5455;53.224;6.000;2023-03-23T07:21:20;100013.88;;;10.62;100.00
10806;BME280;5455;53.224;6.000;2023-03-23T07:23:46;100010.78;;;10.67;100.00
10806;BME280;5455;53.224;6.000;2023-03-23T07:26:19;100018.34;;;10.77;100.00
10806;BME280;5455;53.224;6.000;2023-03-23T07:28:50;100019.16;;;10.78;100.00
10806;BME280;5455;53.224;6.000;2023-03-23T07:31:24;100021.63;;;10.90;100.00
10806;BME280;5455;53.224;6.000;2023-03-23T07:33:52;100020.09;;;10.99;100.00
10806;BME280;5455;53.224;6.000;2023-03-23T07:36:20;100014.56;;;10.92;100.00
10806;BME280;5455;53.224;6.000;2023-03-23T07:38:46;100029.44;;;10.81;100.00
10806;BME280;5455;53.224;6.000;2023-03-23T07:41:12;100031.75;;;10.75;100.00
10806;BME280;5455;53.224;6.000;2023-03-23T07:43:41;100021.81;;;10.67;100.00
10806;BME280;5455;53.224;6.000;2023-03-23T07:46:10;100019.03;;;10.67;100.00
10806;BME280;5455;53.224;6.000;2023-03-23T07:48:45;100025.34;;;10.68;100.00
10806;BME280;5455;53.224;6.000;2023-03-23T07:51:12;100033.53;;;10.61;100.00
10806;BME280;5455;53.224;6.000;2023-03-23T07:53:39;100035.53;;;10.60;100.00
10806;BME280;5455;53.224;6.000;2023-03-23T07:56:26;100044.28;;;10.69;100.00
10806;BME280;5455;53.224;6.000;2023-03-23T07:59:06;100034.25;;;10.94;100.00
10806;BME280;5455;53.224;6.000;2023-03-23T08:01:35;100044.00;;;11.29;100.00
10806;BME280;5455;53.224;6.000;2023-03-23T08:04:28;100054.34;;;11.42;100.00
10806;BME280;5455;53.224;6.000;2023-03-23T08:07:17;100046.78;;;11.36;100.00
10806;BME280;5455;53.224;6.000;2023-03-23T08:10:06;100054.19;;;11.21;100.00
10806;BME280;5455;53.224;6.000;2023-03-23T08:12:55;100054.56;;;11.20;100.00
10806;BME280;5455;53.224;6.000;2023-03-23T08:15:28;100060.47;;;11.18;100.00
10806;BME280;5455;53.224;6.000;2023-03-23T08:18:08;100054.88;;;11.07;100.00
10806;BME280;5455;53.224;6.000;2023-03-23T08:20:55;100059.19;;;11.05;100.00
10806;BME280;5455;53.224;6.000;2023-03-23T08:23:43;100062.72;;;11.05;100.00
10806;BME280;5455;53.224;6.000;2023-03-23T08:26:29;100062.78;;;11.13;100.00
10806;BME280;5455;53.224;6.000;2023-03-23T08:29:14;100064.38;;;11.14;100.00
10806;BME280;5455;53.224;6.000;2023-03-23T08:31:52;100067.50;;;11.12;100.00
10806;BME280;5455;53.224;6.000;2023-03-23T08:34:38;100059.22;;;11.12;100.00
10806;BME280;5455;53.224;6.000;2023-03-23T08:37:04;100064.78;;;11.16;100.00
10806;BME280;5455;53.224;6.000;2023-03-23T08:39:53;100071.47;;;11.15;100.00
10806;BME280;5455;53.224;6.000;2023-03-23T08:42:25;100069.56;;;11.22;100.00
10806;BME280;5455;53.224;6.000;2023-03-23T08:45:05;100071.59;;;11.29;100.00
10806;BME280;5455;53.224;6.000;2023-03-23T08:48:08;100081.88;;;11.32;100.00
10806;BME280;5455;53.224;6.000;2023-03-23T08:50:45;100088.25;;;11.43;100.00
10806;BME280;5455;53.224;6.000;2023-03-23T08:53:43;100087.56;;;11.56;100.00
10806;BME280;5455;53.224;6.000;2023-03-23T08:56:43;100098.34;;;11.72;100.00
10806;BME280;5455;53.224;6.000;2023-03-23T08:59:33;100094.88;;;11.86;100.00
10806;BME280;5455;53.224;6.000;2023-03-23T09:02:12;100099.78;;;12.21;100.00
10806;BME280;5455;53.224;6.000;2023-03-23T09:05:00;100094.75;;;12.44;100.00
10806;BME280;5455;53.224;6.000;2023-03-23T09:07:48;100099.16;;;12.62;100.00
10806;BME280;5455;53.224;6.000;2023-03-23T09:10:16;100102.28;;;12.50;100.00
10806;BME280;5455;53.224;6.000;2023-03-23T09:12:42;100114.09;;;12.37;100.00
10806;BME280;5455;53.224;6.000;2023-03-23T09:15:11;100100.97;;;12.16;100.00
10806;BME280;5455;53.224;6.000;2023-03-23T09:17:42;100105.22;;;12.03;100.00
10806;BME280;5455;53.224;6.000;2023-03-23T09:20:09;100102.09;;;12.04;100.00
10806;BME280;5455;53.224;6.000;2023-03-23T09:22:40;100108.47;;;12.15;100.00
10806;BME280;5455;53.224;6.000;2023-03-23T09:25:08;100107.72;;;12.22;100.00
10806;BME280;5455;53.224;6.000;2023-03-23T09:27:35;100118.84;;;12.40;100.00
10806;BME280;5455;53.224;6.000;2023-03-23T09:30:07;100119.63;;;12.44;100.00
10806;BME280;5455;53.224;6.000;2023-03-23T09:32:34;100122.03;;;12.49;100.00
10806;BME280;5455;53.224;6.000;2023-03-23T09:35:01;100128.38;;;12.60;100.00
10806;BME280;5455;53.224;6.000;2023-03-23T09:37:28;100127.16;;;12.54;100.00
10806;BME280;5455;53.224;6.000;2023-03-23T09:39:55;100128.00;;;12.68;100.00
10806;BME280;5455;53.224;6.000;2023-03-23T09:50:22;100142.31;;;12.88;100.00
10806;BME280;5455;53.224;6.000;2023-03-23T09:52:55;100138.75;;;12.91;100.00
10806;BME280;5455;53.224;6.000;2023-03-23T09:55:22;100138.34;;;12.82;100.00
10806;BME280;5455;53.224;6.000;2023-03-23T09:57:56;100126.91;;;13.01;100.00
10806;BME280;5455;53.224;6.000;2023-03-23T10:00:30;100138.81;;;13.19;100.00
10806;BME280;5455;53.224;6.000;2023-03-23T10:03:14;100140.44;;;13.28;100.00
10806;BME280;5455;53.224;6.000;2023-03-23T10:05:42;100147.13;;;13.41;100.00
10806;BME280;5455;53.224;6.000;2023-03-23T10:08:22;100133.19;;;12.95;100.00
10806;BME280;5455;53.224;6.000;2023-03-23T10:11:16;100137.97;;;13.01;100.00
10806;BME280;5455;53.224;6.000;2023-03-23T10:16:32;100151.47;;;13.13;100.00
10806;BME280;5455;53.224;6.000;2023-03-23T10:21:50;100163.25;;;12.96;100.00
10806;BME280;5455;53.224;6.000;2023-03-23T10:24:21;100157.63;;;12.61;100.00
10806;BME280;5455;53.224;6.000;2023-03-23T10:30:27;100150.03;;;12.37;100.00
10806;BME280;5455;53.224;6.000;2023-03-23T10:38:24;100157.22;;;11.87;100.00
10806;BME280;5455;53.224;6.000;2023-03-23T10:40:57;100149.69;;;11.80;100.00
10806;BME280;5455;53.224;6.000;2023-03-23T10:43:24;100153.28;;;11.88;100.00
10806;BME280;5455;53.224;6.000;2023-03-23T10:48:58;100167.72;;;12.22;100.00
10806;BME280;5455;53.224;6.000;2023-03-23T10:51:32;100176.50;;;12.45;100.00
10806;BME280;5455;53.224;6.000;2023-03-23T10:54:01;100161.53;;;12.46;100.00
10806;BME280;5455;53.224;6.000;2023-03-23T10:56:40;100162.38;;;12.64;100.00
10806;BME280;5455;53.224;6.000;2023-03-23T10:59:27;100167.59;;;12.94;100.00
10806;BME280;5455;53.224;6.000;2023-03-23T11:01:55;100173.66;;;13.56;100.00
10806;BME280;5455;53.224;6.000;2023-03-23T11:04:23;100175.25;;;13.78;100.00
10806;BME280;5455;53.224;6.000;2023-03-23T11:06:57;100186.72;;;13.52;100.00
10806;BME280;5455;53.224;6.000;2023-03-23T11:09:39;100183.09;;;13.09;100.00
10806;BME280;5455;53.224;6.000;2023-03-23T11:12:17;100179.09;;;12.99;100.00
10806;BME280;5455;53.224;6.000;2023-03-23T11:14:43;100190.16;;;12.99;100.00
10806;BME280;5455;53.224;6.000;2023-03-23T11:17:24;100169.25;;;13.09;100.00
10806;BME280;5455;53.224;6.000;2023-03-23T11:19:52;100177.19;;;13.24;100.00
10806;BME280;5455;53.224;6.000;2023-03-23T11:22:32;100178.75;;;13.11;100.00
10806;BME280;5455;53.224;6.000;2023-03-23T11:25:03;100170.03;;;13.13;100.00
10806;BME280;5455;53.224;6.000;2023-03-23T11:27:31;100178.38;;;13.23;100.00
10806;BME280;5455;53.224;6.000;2023-03-23T11:30:07;100174.03;;;13.33;100.00
10806;BME280;5455;53.224;6.000;2023-03-23T11:32:35;100176.69;;;12.91;100.00
10806;BME280;5455;53.224;6.000;2023-03-23T11:35:16;100168.00;;;12.85;100.00
10806;BME280;5455;53.224;6.000;2023-03-23T11:37:47;100185.47;;;13.14;100.00
10806;BME280;5455;53.224;6.000;2023-03-23T11:40:21;100183.91;;;13.23;100.00
10806;BME280;5455;53.224;6.000;2023-03-23T11:42:59;100187.06;;;13.22;100.00
10806;BME280;5455;53.224;6.000;2023-03-23T11:45:37;100191.03;;;13.28;100.00
10806;BME280;5455;53.224;6.000;2023-03-23T11:48:09;100198.56;;;13.56;100.00
10806;BME280;5455;53.224;6.000;2023-03-23T11:54:04;100213.22;;;13.88;100.00
10806;BME280;5455;53.224;6.000;2023-03-23T11:56:36;100195.81;;;13.77;100.00
10806;BME280;5455;53.224;6.000;2023-03-23T11:59:10;100202.13;;;13.53;100.00
10806;BME280;5455;53.224;6.000;2023-03-23T12:07:46;100220.75;;;14.09;100.00
10806;BME280;5455;53.224;6.000;2023-03-23T12:24:06;100209.97;;;14.53;100.00
10806;BME280;5455;53.224;6.000;2023-03-23T12:26:41;100227.00;;;14.55;100.00
10806;BME280;5455;53.224;6.000;2023-03-23T12:34:50;100216.78;;;13.96;100.00
10806;BME280;5455;53.224;6.000;2023-03-23T12:48:29;100208.28;;;14.80;100.00
10806;BME280;5455;53.224;6.000;2023-03-23T12:53:49;100217.13;;;14.47;100.00
10806;BME280;5455;53.224;6.000;2023-03-23T12:58:48;100201.09;;;14.90;100.00
10806;BME280;5455;53.224;6.000;2023-03-23T13:01:30;100203.41;;;15.02;100.00
10806;BME280;5455;53.224;6.000;2023-03-23T13:04:04;100197.47;;;15.04;100.00
10806;BME280;5455;53.224;6.000;2023-03-23T13:06:35;100209.66;;;15.20;100.00
10806;BME280;5455;53.224;6.000;2023-03-23T13:09:25;100191.03;;;15.17;100.00
10806;BME280;5455;53.224;6.000;2023-03-23T13:11:55;100190.78;;;14.90;100.00
10806;BME280;5455;53.224;6.000;2023-03-23T13:20:47;100182.44;;;14.94;100.00
10806;BME280;5455;53.224;6.000;2023-03-23T13:28:22;100187.72;;;14.71;100.00
10806;BME280;5455;53.224;6.000;2023-03-23T13:31:15;100186.75;;;15.02;100.00
10806;BME280;5455;53.224;6.000;2023-03-23T13:33:49;100183.81;;;15.27;100.00
10806;BME280;5455;53.224;6.000;2023-03-23T13:36:25;100181.78;;;15.38;100.00
10806;BME280;5455;53.224;6.000;2023-03-23T13:38:52;100183.84;;;15.23;100.00
10806;BME280;5455;53.224;6.000;2023-03-23T13:41:19;100175.28;;;14.97;100.00
10806;BME280;5455;53.224;6.000;2023-03-23T13:43:47;100195.25;;;14.63;100.00
10806;BME280;5455;53.224;6.000;2023-03-23T13:48:50;100181.91;;;14.19;100.00
10806;BME280;5455;53.224;6.000;2023-03-23T13:57:00;100202.47;;;14.22;100.00
10806;BME280;5455;53.224;6.000;2023-03-23T14:01:55;100201.25;;;14.51;100.00
10806;BME280;5455;53.224;6.000;2023-03-23T14:04:31;100200.06;;;14.52;100.00
10806;BME280;5455;53.224;6.000;2023-03-23T14:07:09;100197.22;;;14.70;100.00
10806;BME280;5455;53.224;6.000;2023-03-23T14:09:41;100204.44;;;14.39;100.00
10806;BME280;5455;53.224;6.000;2023-03-23T14:12:21;100190.22;;;14.19;100.00
10806;BME280;5455;53.224;6.000;2023-03-23T14:14:55;100183.91;;;14.12;100.00
10806;BME280;5455;53.224;6.000;2023-03-23T14:17:35;100198.91;;;14.28;100.00
10806;BME280;5455;53.224;6.000;2023-03-23T14:20:05;100205.16;;;14.64;100.00
10806;BME280;5455;53.224;6.000;2023-03-23T14:22:39;100196.47;;;14.62;100.00
10806;BME280;5455;53.224;6.000;2023-03-23T14:25:27;100202.44;;;14.54;100.00
10806;BME280;5455;53.224;6.000;2023-03-23T14:27:54;100192.47;;;14.67;100.00
10806;BME280;5455;53.224;6.000;2023-03-23T14:30:24;100200.00;;;14.70;100.00
10806;BME280;5455;53.224;6.000;2023-03-23T14:32:52;100194.88;;;14.61;100.00
10806;BME280;5455;53.224;6.000;2023-03-23T14:35:32;100191.00;;;14.45;100.00
10806;BME280;5455;53.224;6.000;2023-03-23T14:37:59;100172.38;;;14.42;100.00
10806;BME280;5455;53.224;6.000;2023-03-23T14:40:27;100184.66;;;14.33;100.00
10806;BME280;5455;53.224;6.000;2023-03-23T14:42:54;100173.56;;;14.33;100.00
10806;BME280;5455;53.224;6.000;2023-03-23T14:45:22;100185.06;;;14.36;100.00
10806;BME280;5455;53.224;6.000;2023-03-23T14:47:52;100177.16;;;14.23;100.00
10806;BME280;5455;53.224;6.000;2023-03-23T14:50:28;100190.59;;;14.25;100.00
10806;BME280;5455;53.224;6.000;2023-03-23T14:53:22;100168.78;;;14.27;100.00
10806;BME280;5455;53.224;6.000;2023-03-23T14:55:53;100184.66;;;14.41;100.00
10806;BME280;5455;53.224;6.000;2023-03-23T14:58:23;100187.00;;;14.42;100.00
10806;BME280;5455;53.224;6.000;2023-03-23T15:00:54;100184.22;;;14.42;100.00
10806;BME280;5455;53.224;6.000;2023-03-23T15:03:23;100185.00;;;14.50;100.00
10806;BME280;5455;53.224;6.000;2023-03-23T15:05:55;100179.84;;;14.52;100.00
10806;BME280;5455;53.224;6.000;2023-03-23T15:08:27;100191.75;;;14.52;100.00
10806;BME280;5455;53.224;6.000;2023-03-23T15:11:21;100188.59;;;14.40;100.00
10806;BME280;5455;53.224;6.000;2023-03-23T15:13:51;100187.41;;;14.41;100.00
10806;BME280;5455;53.224;6.000;2023-03-23T15:16:33;100175.09;;;14.52;100.00
10806;BME280;5455;53.224;6.000;2023-03-23T15:19:04;100180.28;;;14.36;100.00